Time;durP1;ratioP1;P1;durP2;ratioP2;P2;SDS_P1;SDS_P2;PMS_P1;PMS_P2;Temp;Humidity;BMP_temperature;BMP_pressure;BME280_temperature;BME280_humidity;BME280_pressure;Samples;Min_cycle;Max_cycle;Signal;HPM_P1;HPM_P2
2022/11/30 00:01:10;;;;;;;35.08;18.13;;;8.60;90.40;;;;;;9174927;19;20026;-66
2022/11/30 00:04:14;;;;;;;34.22;16.90;;;8.50;90.30;;;;;;9175907;19;20022;-67
2022/11/30 00:07:18;;;;;;;34.47;17.75;;;8.60;90.30;;;;;;9180031;19;20014;-67
2022/11/30 00:10:22;;;;;;;29.45;15.15;;;8.50;90.30;;;;;;9184519;19;20018;-67
2022/11/30 00:13:27;;;;;;;34.92;17.52;;;8.60;90.40;;;;;;9183559;19;20030;-68
2022/11/30 00:16:31;;;;;;;35.25;17.60;;;8.50;90.30;;;;;;9183216;19;20444;-67
2022/11/30 00:19:35;;;;;;;32.15;17.17;;;8.50;90.30;;;;;;9178128;19;20006;-68
2022/11/30 00:22:39;;;;;;;36.08;17.67;;;8.50;90.30;;;;;;9176102;19;20491;-67
2022/11/30 00:25:42;;;;;;;33.03;16.45;;;8.50;90.30;;;;;;9183808;19;20018;-69
2022/11/30 00:28:48;;;;;;;33.85;17.17;;;8.50;90.30;;;;;;9182813;19;20023;-68
2022/11/30 00:31:52;;;;;;;34.92;16.60;;;8.60;90.30;;;;;;9183026;19;20027;-71
2022/11/30 00:34:56;;;;;;;32.25;16.83;;;8.60;90.30;;;;;;9183204;19;20475;-68
2022/11/30 00:38:02;;;;;;;;;;;8.60;90.30;;;;;;9184306;19;20014;-69
2022/11/30 00:41:06;;;;;;;35.45;17.33;;;8.60;90.30;;;;;;9182672;19;20320;-69
2022/11/30 00:44:12;;;;;;;35.75;17.13;;;8.60;90.30;;;;;;9183139;19;20052;-68
2022/11/30 00:47:15;;;;;;;34.65;18.08;;;8.60;90.30;;;;;;9183329;19;20018;-68
2022/11/30 00:50:19;;;;;;;38.95;18.98;;;8.60;90.30;;;;;;9182817;19;20031;-69
2022/11/30 00:53:23;;;;;;;32.63;17.33;;;8.60;90.30;;;;;;9178673;19;20022;-68
2022/11/30 00:56:26;;;;;;;33.53;17.02;;;8.60;90.30;;;;;;9182636;19;20493;-69
2022/11/30 00:59:32;;;;;;;33.35;17.30;;;8.50;90.30;;;;;;9180690;19;20476;-68
2022/11/30 01:02:36;;;;;;;35.55;17.38;;;8.60;90.30;;;;;;9181747;19;20022;-68
2022/11/30 01:05:42;;;;;;;36.53;17.83;;;8.60;90.30;;;;;;9179750;19;20014;-68
2022/11/30 01:08:46;;;;;;;35.85;18.20;;;8.60;90.30;;;;;;9182364;19;20010;-68
2022/11/30 01:11:50;;;;;;;35.75;17.75;;;8.60;90.30;;;;;;9181755;19;20084;-68
2022/11/30 01:14:56;;;;;;;35.55;18.58;;;8.60;90.30;;;;;;9182677;19;20034;-70
2022/11/30 01:18:00;;;;;;;37.47;18.35;;;8.60;90.30;;;;;;9179004;19;20014;-68
2022/11/30 01:21:07;;;;;;;34.35;17.60;;;8.60;90.30;;;;;;9178010;19;20010;-70
2022/11/30 01:24:11;;;;;;;37.13;18.08;;;8.60;90.50;;;;;;9175941;19;20022;-68
2022/11/30 01:27:15;;;;;;;37.33;17.73;;;8.60;90.20;;;;;;9181631;19;20014;-69
2022/11/30 01:30:21;;;;;;;39.15;19.23;;;8.60;90.20;;;;;;9181596;19;20014;-68
2022/11/30 01:33:24;;;;;;;34.40;17.02;;;8.60;90.20;;;;;;9179596;19;20031;-69
2022/11/30 01:36:28;;;;;;;36.00;16.58;;;8.60;90.20;;;;;;9181321;19;20030;-69
2022/11/30 01:39:32;;;;;;;37.60;19.23;;;8.60;90.20;;;;;;9178598;19;20017;-71
2022/11/30 01:42:36;;;;;;;34.90;17.58;;;8.60;90.20;;;;;;9180699;19;20026;-69
2022/11/30 01:45:42;;;;;;;36.08;18.38;;;8.60;90.20;;;;;;9180685;19;20048;-68
2022/11/30 01:48:46;;;;;;;34.22;18.42;;;8.60;90.20;;;;;;9180112;19;20018;-68
2022/11/30 01:51:54;;;;;;;35.33;17.10;;;8.60;90.20;;;;;;9178176;19;20010;-68
2022/11/30 01:55:04;;;;;;;32.35;16.80;;;8.60;90.20;;;;;;9180681;19;20372;-69
2022/11/30 01:58:10;;;;;;;36.92;17.52;;;8.60;90.20;;;;;;9180391;19;20479;-69
2022/11/30 02:01:16;;;;;;;37.35;17.35;;;8.60;90.20;;;;;;9180394;19;20372;-69
2022/11/30 02:04:24;;;;;;;30.70;16.00;;;8.60;90.20;;;;;;9180877;19;20006;-69
2022/11/30 02:07:28;;;;;;;34.05;16.63;;;8.60;90.20;;;;;;9179728;19;20011;-68
2022/11/30 02:10:36;;;;;;;34.47;16.75;;;8.50;90.10;;;;;;9179552;19;20014;-69
2022/11/30 02:13:52;;;;;;;38.10;17.33;;;8.50;90.10;;;;;;9179628;19;20066;-68
2022/11/30 02:17:10;;;;;;;34.78;17.08;;;8.50;90.10;;;;;;9180141;19;20014;-69
2022/11/30 02:20:40;;;;;;;33.92;17.30;;;8.50;90.10;;;;;;9177002;19;20093;-69
2022/11/30 02:24:07;;;;;;;35.67;16.75;;;8.50;90.10;;;;;;9174829;19;20141;-69
2022/11/30 02:27:19;;;;;;;35.13;16.67;;;8.40;90.00;;;;;;9179624;19;20078;-68
2022/11/30 02:30:26;;;;;;;33.53;16.70;;;8.40;90.10;;;;;;9177312;19;20026;-68
2022/11/30 02:33:32;;;;;;;32.88;16.70;;;8.30;90.00;;;;;;9178781;19;20021;-68
2022/11/30 02:36:37;;;;;;;37.72;17.10;;;8.30;90.10;;;;;;9179312;19;20133;-69
2022/11/30 02:39:41;;;;;;;32.78;16.42;;;8.30;90.10;;;;;;9176900;19;20015;-68
2022/11/30 02:42:45;;;;;;;30.88;16.02;;;8.20;90.10;;;;;;9178537;19;20015;-68
2022/11/30 02:46:00;;;;;;;34.65;17.55;;;8.10;90.10;;;;;;9179236;19;20030;-69
2022/11/30 02:49:10;;;;;;;35.95;17.15;;;8.10;90.10;;;;;;9179028;19;20011;-69
2022/11/30 02:52:16;;;;;;;36.60;17.52;;;8.10;90.10;;;;;;9176478;19;20445;-69
2022/11/30 02:55:21;;;;;;;39.50;18.58;;;8.10;90.10;;;;;;9178661;19;20006;-68
2022/11/30 02:58:25;;;;;;;34.10;17.35;;;8.00;90.10;;;;;;9177044;19;20556;-69
2022/11/30 03:01:31;;;;;;;34.90;16.95;;;8.00;90.20;;;;;;9175843;19;20045;-69
2022/11/30 03:04:35;;;;;;;32.85;17.45;;;8.00;90.20;;;;;;9178370;19;20045;-68
2022/11/30 03:07:39;;;;;;;36.30;17.55;;;8.00;90.20;;;;;;9177908;19;20021;-69
2022/11/30 03:10:42;;;;;;;36.20;17.70;;;8.00;90.20;;;;;;9177545;19;20022;-69
2022/11/30 03:13:46;;;;;;;37.35;19.08;;;8.00;90.20;;;;;;9176965;19;20014;-69
2022/11/30 03:16:52;;;;;;;36.47;18.20;;;7.90;90.20;;;;;;9177309;19;20475;-68
2022/11/30 03:19:55;;;;;;;38.20;19.00;;;7.90;90.20;;;;;;9173616;19;20011;-69
2022/11/30 03:23:01;;;;;;;34.20;18.23;;;7.90;90.20;;;;;;9173407;19;20089;-70
2022/11/30 03:26:07;;;;;;;41.50;19.83;;;7.90;90.20;;;;;;9176295;19;20031;-69
2022/11/30 03:29:10;;;;;;;35.63;18.70;;;7.90;90.20;;;;;;9176479;19;20022;-68
2022/11/30 03:32:16;;;;;;;38.67;19.67;;;7.90;90.20;;;;;;9173637;19;20029;-69
2022/11/30 03:35:20;;;;;;;41.17;19.80;;;7.90;90.20;;;;;;9176512;19;20042;-68
2022/11/30 03:38:24;;;;;;;43.30;19.75;;;7.90;90.20;;;;;;9175785;19;20019;-68
2022/11/30 03:41:28;;;;;;;37.20;18.00;;;7.90;90.20;;;;;;9178909;19;20010;-70
2022/11/30 03:44:31;;;;;;;41.47;19.50;;;7.90;90.20;;;;;;9185009;19;20491;-69
2022/11/30 03:47:38;;;;;;;42.60;20.08;;;7.90;90.30;;;;;;9182792;19;20021;-68
2022/11/30 03:50:41;;;;;;;43.17;19.80;;;7.90;90.30;;;;;;9184709;19;20955;-69
2022/11/30 03:53:45;;;;;;;37.95;20.98;;;7.90;90.30;;;;;;9181270;19;20082;-69
2022/11/30 03:56:49;;;;;;;41.38;20.45;;;7.90;90.30;;;;;;9183748;19;20504;-70
2022/11/30 03:59:55;;;;;;;43.10;19.92;;;8.00;90.30;;;;;;9182534;19;20527;-68
2022/11/30 04:03:01;;;;;;;38.40;18.60;;;7.90;90.30;;;;;;9183689;19;20013;-68
2022/11/30 04:06:06;;;;;;;43.50;20.20;;;7.90;90.30;;;;;;9183656;19;20002;-69
2022/11/30 04:09:10;;;;;;;43.88;19.80;;;8.00;90.30;;;;;;9182055;19;20685;-68
2022/11/30 04:12:14;;;;;;;41.28;19.55;;;8.00;90.30;;;;;;9181800;19;20014;-68
2022/11/30 04:15:18;;;;;;;;;;;8.00;90.30;;;;;;9184853;19;20019;-68
2022/11/30 04:18:25;;;;;;;43.67;19.48;;;8.00;90.30;;;;;;9183844;19;19938;-70
2022/11/30 04:21:29;;;;;;;38.00;18.85;;;8.00;90.20;;;;;;9181316;19;20459;-68
2022/11/30 04:24:32;;;;;;;37.22;18.55;;;8.00;90.30;;;;;;9178696;19;20037;-69
2022/11/30 04:27:36;;;;;;;46.33;21.17;;;8.00;90.30;;;;;;9181543;19;20022;-68
2022/11/30 04:30:40;;;;;;;41.65;19.30;;;8.00;90.30;;;;;;9182913;19;20019;-68
2022/11/30 04:33:45;;;;;;;41.20;19.08;;;8.00;90.30;;;;;;9181092;19;20409;-69
2022/11/30 04:36:49;;;;;;;41.53;19.05;;;8.00;90.30;;;;;;9183308;19;20014;-69
2022/11/30 04:39:53;;;;;;;37.20;19.58;;;8.00;90.30;;;;;;9179593;19;20015;-69
2022/11/30 04:42:56;;;;;;;44.85;19.85;;;8.00;90.30;;;;;;9183294;19;20018;-68
2022/11/30 04:46:00;;;;;;;40.58;19.40;;;8.00;90.30;;;;;;9183257;19;20342;-70
2022/11/30 04:49:06;;;;;;;44.03;20.63;;;8.10;90.30;;;;;;9182994;19;20018;-69
2022/11/30 04:52:10;;;;;;;35.97;18.48;;;8.00;90.30;;;;;;9180125;19;20027;-68
2022/11/30 04:55:16;;;;;;;40.65;19.58;;;8.00;90.20;;;;;;9182148;19;20011;-69
2022/11/30 04:58:19;;;;;;;39.10;19.90;;;8.00;90.30;;;;;;9182044;19;20021;-68
2022/11/30 05:01:23;;;;;;;47.47;19.88;;;8.00;90.20;;;;;;9179010;19;20164;-70
2022/11/30 05:04:29;;;;;;;42.08;20.33;;;8.00;90.30;;;;;;9182035;19;20018;-68
2022/11/30 05:07:32;;;;;;;39.35;19.17;;;8.00;90.30;;;;;;9182144;19;20018;-70
2022/11/30 05:10:36;;;;;;;45.78;20.67;;;8.00;90.30;;;;;;9182015;19;20007;-69
2022/11/30 05:13:40;;;;;;;41.05;19.23;;;8.00;90.30;;;;;;9179930;19;20110;-68
2022/11/30 05:16:44;;;;;;;42.47;20.25;;;8.00;90.30;;;;;;9181839;19;20022;-68
2022/11/30 05:19:49;;;;;;;50.88;21.98;;;8.00;90.30;;;;;;9180197;19;20014;-69
2022/11/30 05:22:53;;;;;;;46.42;20.65;;;8.00;90.30;;;;;;9175834;19;20015;-68
2022/11/30 05:25:57;;;;;;;46.58;21.00;;;8.00;90.30;;;;;;9181169;19;20026;-68
2022/11/30 05:29:00;;;;;;;44.70;21.17;;;8.00;90.30;;;;;;9180343;19;20018;-70
2022/11/30 05:32:04;;;;;;;45.97;21.52;;;8.00;90.30;;;;;;9180151;19;20616;-68
2022/11/30 05:35:10;;;;;;;42.58;20.58;;;8.00;90.30;;;;;;9181299;19;20014;-69
2022/11/30 05:38:14;;;;;;;59.10;21.88;;;8.00;90.30;;;;;;9180467;19;20003;-68
2022/11/30 05:41:18;;;;;;;48.72;20.15;;;8.00;90.30;;;;;;9178333;19;20463;-68
2022/11/30 05:44:22;;;;;;;47.50;21.23;;;8.00;90.30;;;;;;9180172;19;20487;-68
2022/11/30 05:47:25;;;;;;;;;;;8.00;90.30;;;;;;9181852;19;20011;-68
2022/11/30 05:50:31;;;;;;;48.28;20.02;;;8.00;90.30;;;;;;9180680;19;20308;-69
2022/11/30 05:53:36;;;;;;;51.80;21.90;;;8.00;90.20;;;;;;9176879;19;20014;-69
2022/11/30 05:56:40;;;;;;;49.33;20.80;;;8.00;90.30;;;;;;9180523;19;20022;-69
2022/11/30 05:59:43;;;;;;;47.67;20.33;;;8.00;90.30;;;;;;9178246;19;20439;-68
2022/11/30 06:02:47;;;;;;;42.25;20.75;;;8.00;90.30;;;;;;9180753;19;20042;-69
2022/11/30 06:05:53;;;;;;;;;;;8.00;90.30;;;;;;9177220;19;20021;-70
2022/11/30 06:08:56;;;;;;;49.60;20.83;;;8.00;90.30;;;;;;9179890;19;19915;-69
2022/11/30 06:12:00;;;;;;;50.85;19.85;;;8.00;90.30;;;;;;9179937;19;20029;-68
2022/11/30 06:15:04;;;;;;;;;;;8.00;90.30;;;;;;9180701;19;20010;-68
2022/11/30 06:18:09;;;;;;;40.13;17.90;;;7.90;90.40;;;;;;9180567;19;19936;-70
2022/11/30 06:21:15;;;;;;;42.70;18.50;;;7.90;90.30;;;;;;9173830;19;20520;-68
2022/11/30 06:24:27;;;;;;;44.83;20.15;;;8.00;90.30;;;;;;9173724;19;20029;-68
2022/11/30 06:27:32;;;;;;;44.40;19.70;;;7.90;90.30;;;;;;9179136;19;20047;-69
2022/11/30 06:30:35;;;;;;;43.70;19.20;;;7.90;90.30;;;;;;9178550;19;20022;-68
2022/11/30 06:33:39;;;;;;;47.45;20.00;;;7.90;90.30;;;;;;9179435;19;20026;-69
2022/11/30 06:36:45;;;;;;;48.67;19.23;;;7.90;90.30;;;;;;9179288;19;20019;-68
2022/11/30 06:39:49;;;;;;;42.60;19.63;;;7.90;90.30;;;;;;9177647;19;20490;-69
2022/11/30 06:43:10;;;;;;;42.53;18.38;;;7.90;90.40;;;;;;9178240;19;20010;-68
2022/11/30 06:46:13;;;;;;;38.38;18.17;;;7.90;90.40;;;;;;9178242;19;20015;-68
2022/11/30 06:49:17;;;;;;;46.83;19.38;;;7.90;90.40;;;;;;9176386;19;20018;-68
2022/11/30 06:52:23;;;;;;;40.63;18.63;;;7.90;90.60;;;;;;9176820;19;20018;-69
2022/11/30 06:55:28;;;;;;;40.58;18.98;;;7.90;90.30;;;;;;9172613;19;20024;-70
2022/11/30 06:58:32;;;;;;;45.20;18.42;;;7.90;90.40;;;;;;9178672;19;20045;-70
2022/11/30 07:01:36;;;;;;;40.05;17.98;;;7.90;90.30;;;;;;9174066;19;20015;-68
2022/11/30 07:04:39;;;;;;;46.00;19.65;;;7.90;90.30;;;;;;9176903;19;20018;-68
2022/11/30 07:07:45;;;;;;;43.28;17.40;;;7.90;90.30;;;;;;9173940;19;20018;-69
2022/11/30 07:10:49;;;;;;;37.08;18.25;;;7.90;90.30;;;;;;9156739;19;20021;-70
2022/11/30 07:13:53;;;;;;;35.83;17.15;;;7.90;90.30;;;;;;9159861;19;20047;-70
2022/11/30 07:16:56;;;;;;;40.75;18.33;;;7.90;90.30;;;;;;9161642;19;20679;-72
2022/11/30 07:20:00;;;;;;;42.17;17.05;;;7.90;90.30;;;;;;9163997;19;20022;-70
2022/11/30 07:26:22;;;;;;;39.58;17.55;;;7.90;90.30;;;;;;9162938;19;20055;-69
2022/11/30 07:29:26;;;;;;;;;;;7.90;90.30;;;;;;9166093;19;20027;-70
2022/11/30 07:32:30;;;;;;;37.53;16.83;;;7.90;90.30;;;;;;9166636;19;19918;-70
2022/11/30 07:35:34;;;;;;;33.92;16.80;;;7.90;90.30;;;;;;9166297;19;20078;-69
2022/11/30 07:38:40;;;;;;;;;;;7.90;90.30;;;;;;9172254;19;20018;-70
2022/11/30 07:41:44;;;;;;;32.25;15.90;;;7.90;90.30;;;;;;9166980;19;19972;-69
2022/11/30 07:44:49;;;;;;;37.28;17.95;;;7.80;90.30;;;;;;9168753;19;20010;-69
2022/11/30 07:48:01;;;;;;;34.03;16.63;;;7.80;90.30;;;;;;9172805;19;20019;-68
2022/11/30 07:51:05;;;;;;;;;;;7.80;90.30;;;;;;9172059;19;20026;-68
2022/11/30 07:54:11;;;;;;;38.00;17.17;;;7.80;90.30;;;;;;9170812;19;19925;-70
2022/11/30 07:57:15;;;;;;;38.35;16.63;;;7.80;90.30;;;;;;9174533;19;20017;-70
2022/11/30 08:00:19;;;;;;;37.55;18.15;;;7.80;90.30;;;;;;9169634;19;20050;-70
2022/11/30 08:03:22;;;;;;;41.95;17.70;;;7.80;90.30;;;;;;9170617;19;20029;-69
2022/11/30 08:06:27;;;;;;;;;;;7.80;90.30;;;;;;9171310;19;20017;-69
2022/11/30 08:09:33;;;;;;;;;;;7.80;90.30;;;;;;9174078;19;19934;-71
2022/11/30 08:12:37;;;;;;;42.50;16.60;;;7.90;90.30;;;;;;9172489;19;19934;-70
2022/11/30 08:15:42;;;;;;;37.25;17.73;;;7.80;90.20;;;;;;9174180;19;20030;-69
2022/11/30 08:18:46;;;;;;;35.55;17.13;;;7.80;90.20;;;;;;9175535;19;20018;-69
2022/11/30 08:21:50;;;;;;;40.45;18.13;;;7.80;90.30;;;;;;9169960;19;20014;-69
2022/11/30 08:24:55;;;;;;;47.28;18.83;;;7.80;90.30;;;;;;9170226;19;20051;-71
2022/11/30 08:27:59;;;;;;;37.67;17.20;;;7.80;90.30;;;;;;9174994;19;20019;-69
2022/11/30 08:31:04;;;;;;;46.08;18.38;;;7.80;90.30;;;;;;9179275;19;20482;-70
2022/11/30 08:34:10;;;;;;;38.15;19.35;;;7.90;90.30;;;;;;9178289;19;20029;-69
2022/11/30 08:37:14;;;;;;;38.33;17.73;;;7.90;90.30;;;;;;9181805;19;20407;-69
2022/11/30 08:40:20;;;;;;;40.70;17.45;;;7.80;90.30;;;;;;9173599;19;20034;-70
2022/11/30 08:43:24;;;;;;;36.85;17.60;;;7.90;90.30;;;;;;9177566;19;20015;-69
2022/11/30 08:46:28;;;;;;;38.28;18.48;;;7.90;90.30;;;;;;9175922;19;20023;-70
2022/11/30 08:49:52;;;;;;;35.80;17.60;;;7.80;90.30;;;;;;9176400;19;20018;-70
2022/11/30 08:52:56;;;;;;;40.05;16.90;;;7.80;90.30;;;;;;9177866;19;20470;-69
2022/11/30 08:56:11;;;;;;;35.33;16.58;;;7.90;90.30;;;;;;9180318;19;20011;-70
2022/11/30 08:59:15;;;;;;;30.77;15.85;;;7.90;90.30;;;;;;9178541;19;20024;-70
2022/11/30 09:02:20;;;;;;;30.30;15.18;;;7.90;90.30;;;;;;9177135;19;20548;-70
2022/11/30 09:05:24;;;;;;;33.85;17.10;;;7.90;90.30;;;;;;9176452;19;20023;-70
2022/11/30 09:08:28;;;;;;;34.15;14.50;;;7.90;90.30;;;;;;9175186;19;20023;-70
2022/11/30 09:11:35;;;;;;;35.03;14.05;;;7.90;90.30;;;;;;9177749;19;20007;-70
2022/11/30 09:14:38;;;;;;;29.60;13.43;;;7.90;90.30;;;;;;9172252;19;20793;-70
2022/11/30 09:17:43;;;;;;;33.05;14.10;;;7.90;90.30;;;;;;9168663;19;20018;-69
2022/11/30 09:20:47;;;;;;;30.55;14.57;;;7.90;90.20;;;;;;9166813;19;20022;-69
2022/11/30 09:23:51;;;;;;;;;;;7.90;90.20;;;;;;9166479;19;20030;-70
2022/11/30 09:26:58;;;;;;;26.10;13.63;;;7.90;90.20;;;;;;9168717;19;19922;-70
2022/11/30 09:30:01;;;;;;;28.38;13.68;;;7.90;90.20;;;;;;9169982;19;20082;-70
2022/11/30 09:33:05;;;;;;;28.17;14.10;;;7.90;90.20;;;;;;9177680;19;20010;-69
2022/11/30 09:36:11;;;;;;;31.70;14.88;;;7.90;90.20;;;;;;9173575;19;20049;-70
2022/11/30 09:39:15;;;;;;;30.23;14.23;;;7.90;90.20;;;;;;9173086;19;20030;-70
2022/11/30 09:42:27;;;;;;;;;;;7.90;90.20;;;;;;9174217;19;20022;-70
2022/11/30 09:45:33;;;;;;;29.05;13.93;;;8.00;90.20;;;;;;9173389;19;19923;-72
2022/11/30 09:48:53;;;;;;;35.72;16.73;;;8.00;90.20;;;;;;9175105;19;20007;-69
2022/11/30 09:51:59;;;;;;;39.38;18.02;;;8.00;90.20;;;;;;9173883;19;20018;-69
2022/11/30 09:55:08;;;;;;;36.38;18.05;;;8.00;90.20;;;;;;9175638;19;20023;-70
2022/11/30 09:58:23;;;;;;;38.20;16.85;;;8.00;90.20;;;;;;9175027;19;20090;-70
2022/11/30 10:01:27;;;;;;;41.20;17.77;;;8.00;90.20;;;;;;9167527;19;20025;-71
2022/11/30 10:04:37;;;;;;;44.78;18.33;;;8.00;90.10;;;;;;9169698;19;20368;-69
2022/11/30 10:07:54;;;;;;;45.30;18.15;;;8.00;90.10;;;;;;9177311;19;20015;-69
2022/11/30 10:11:11;;;;;;;37.95;17.75;;;8.00;90.10;;;;;;9173612;19;20026;-69
2022/11/30 10:14:36;;;;;;;39.22;18.65;;;8.00;90.10;;;;;;9169623;19;20062;-71
2022/11/30 10:17:47;;;;;;;40.97;18.15;;;8.00;90.10;;;;;;9171341;19;20039;-69
2022/11/30 10:20:59;;;;;;;45.15;18.63;;;8.00;90.10;;;;;;9168316;19;20058;-71
2022/11/30 10:24:16;;;;;;;42.05;17.40;;;8.00;90.10;;;;;;9164147;19;20018;-69
2022/11/30 10:27:37;;;;;;;42.17;17.05;;;8.00;90.10;;;;;;9171818;19;20014;-69
2022/11/30 10:30:43;;;;;;;42.67;17.42;;;8.00;90.10;;;;;;9173450;19;20018;-69
2022/11/30 10:33:49;;;;;;;49.63;19.52;;;8.00;90.10;;;;;;9170690;19;20014;-69
2022/11/30 10:37:00;;;;;;;40.42;18.13;;;8.00;90.10;;;;;;9168042;19;20462;-69
2022/11/30 10:40:10;;;;;;;39.70;18.95;;;8.00;90.10;;;;;;9168830;19;20019;-70
2022/11/30 10:43:21;;;;;;;38.15;16.67;;;8.00;90.10;;;;;;9175550;19;20027;-69
2022/11/30 10:46:30;;;;;;;41.80;17.85;;;8.00;90.10;;;;;;9172392;19;20019;-71
2022/11/30 10:49:36;;;;;;;36.40;16.13;;;8.00;90.10;;;;;;9173629;19;20022;-70
2022/11/30 10:52:46;;;;;;;34.75;15.48;;;8.00;90.10;;;;;;9169819;19;20056;-69
2022/11/30 10:55:59;;;;;;;29.67;14.82;;;8.00;90.10;;;;;;9174105;19;20026;-70
2022/11/30 10:59:09;;;;;;;33.83;15.90;;;8.00;90.10;;;;;;9175386;19;20025;-70
2022/11/30 11:02:44;;;;;;;30.92;14.85;;;8.00;90.10;;;;;;9167845;19;20035;-69
2022/11/30 11:05:48;;;;;;;31.42;13.77;;;8.00;90.10;;;;;;9170976;19;20579;-69
2022/11/30 11:08:52;;;;;;;31.13;13.73;;;8.00;90.10;;;;;;9171526;19;20030;-69
2022/11/30 11:11:58;;;;;;;28.10;13.18;;;8.00;90.10;;;;;;9170901;19;20473;-69
2022/11/30 11:15:10;;;;;;;33.83;14.45;;;8.00;90.10;;;;;;9167480;19;20027;-69
2022/11/30 11:18:26;;;;;;;30.98;14.13;;;8.00;90.10;;;;;;9166093;19;20029;-69
2022/11/30 11:21:30;;;;;;;32.88;13.80;;;8.00;90.10;;;;;;9169408;19;20414;-69
2022/11/30 11:24:34;;;;;;;26.13;11.98;;;8.00;90.10;;;;;;9175505;19;20018;-69
2022/11/30 11:27:38;;;;;;;26.38;12.38;;;8.00;90.10;;;;;;9170468;19;20015;-69
2022/11/30 11:30:51;;;;;;;26.83;12.50;;;8.00;90.10;;;;;;9168611;19;20028;-69
2022/11/30 11:33:57;;;;;;;29.77;13.38;;;7.90;90.30;;;;;;9164592;19;20113;-70
2022/11/30 11:37:08;;;;;;;29.92;12.10;;;8.00;90.10;;;;;;9157833;19;20087;-71
2022/11/30 11:40:17;;;;;;;25.50;13.00;;;8.00;90.10;;;;;;9159284;19;20405;-71
2022/11/30 11:43:21;;;;;;;27.58;14.55;;;8.00;90.10;;;;;;9158438;19;20035;-70
2022/11/30 11:46:26;;;;;;;26.52;13.80;;;8.00;90.10;;;;;;9161737;19;20344;-70
2022/11/30 11:49:35;;;;;;;27.38;13.95;;;8.00;90.00;;;;;;9164685;19;20078;-71
2022/11/30 11:52:39;;;;;;;30.10;14.40;;;8.00;90.30;;;;;;9165013;19;20050;-68
2022/11/30 11:55:43;;;;;;;;;;;8.00;90.00;;;;;;9173326;19;20035;-67
2022/11/30 11:58:51;;;;;;;26.53;14.40;;;8.00;90.10;;;;;;9170710;19;19926;-68
2022/11/30 12:02:02;;;;;;;35.28;14.60;;;8.00;90.00;;;;;;9166817;19;20014;-68
2022/11/30 12:05:15;;;;;;;34.92;15.15;;;8.00;90.00;;;;;;9176756;19;20025;-68
2022/11/30 12:08:29;;;;;;;33.35;16.10;;;8.00;90.00;;;;;;9177853;19;20468;-67
2022/11/30 12:11:40;;;;;;;32.95;16.48;;;8.00;90.00;;;;;;9180394;19;20086;-69
2022/11/30 12:14:44;;;;;;;36.47;17.52;;;8.10;90.00;;;;;;9182391;19;20051;-68
2022/11/30 12:17:58;;;;;;;39.80;19.23;;;8.00;90.00;;;;;;9180995;19;20061;-68
2022/11/30 12:21:13;;;;;;;41.08;18.92;;;8.00;90.00;;;;;;9161818;19;20025;-67
2022/11/30 12:24:54;;;;;;;37.13;18.23;;;8.00;90.00;;;;;;9180539;19;20014;-67
2022/11/30 12:28:14;;;;;;;39.20;20.02;;;8.00;90.00;;;;;;9172191;19;20066;-68
2022/11/30 12:31:19;;;;;;;43.97;19.65;;;8.00;90.00;;;;;;9175772;19;20329;-69
2022/11/30 12:34:31;;;;;;;41.28;20.38;;;8.00;90.00;;;;;;9177791;19;20029;-69
2022/11/30 12:37:49;;;;;;;39.00;19.05;;;8.00;90.00;;;;;;9182001;19;20034;-67
2022/11/30 12:41:01;;;;;;;40.15;19.70;;;8.00;90.00;;;;;;9179397;19;20022;-67
2022/11/30 12:44:29;;;;;;;44.95;20.20;;;8.00;90.00;;;;;;9182962;19;20021;-68
2022/11/30 12:47:45;;;;;;;35.47;17.67;;;8.00;90.00;;;;;;9181010;19;20110;-69
2022/11/30 12:51:01;;;;;;;41.60;19.38;;;8.00;90.00;;;;;;9179936;19;20372;-68
2022/11/30 12:54:20;;;;;;;40.17;19.67;;;8.00;90.00;;;;;;9177509;19;20022;-69
2022/11/30 12:57:27;;;;;;;41.08;20.75;;;8.00;90.00;;;;;;9179143;19;20042;-68
2022/11/30 13:00:40;;;;;;;39.95;21.27;;;8.00;90.00;;;;;;9178809;19;20480;-67
2022/11/30 13:03:54;;;;;;;44.60;22.70;;;8.00;90.00;;;;;;9179358;19;20026;-68
2022/11/30 13:07:01;;;;;;;44.30;21.15;;;8.00;90.00;;;;;;9179698;19;20367;-67
2022/11/30 13:10:19;;;;;;;43.35;21.30;;;8.00;90.00;;;;;;9178679;19;20014;-68
2022/11/30 13:13:26;;;;;;;39.92;20.00;;;8.00;90.00;;;;;;9178380;19;20019;-69
2022/11/30 13:16:33;;;;;;;48.67;22.33;;;8.00;90.00;;;;;;9177104;19;20022;-68
2022/11/30 13:19:54;;;;;;;50.80;22.85;;;8.00;90.00;;;;;;9174363;19;20018;-68
2022/11/30 13:23:03;;;;;;;49.97;22.83;;;8.00;90.00;;;;;;9176285;19;20958;-68
2022/11/30 13:26:20;;;;;;;43.38;21.48;;;8.00;89.90;;;;;;9177311;19;20456;-68
2022/11/30 13:29:46;;;;;;;42.17;21.83;;;8.00;89.90;;;;;;9175604;19;20070;-68
2022/11/30 13:32:50;;;;;;;48.22;23.73;;;8.00;89.90;;;;;;9172024;19;20019;-69
2022/11/30 13:36:05;;;;;;;44.80;22.00;;;7.90;89.90;;;;;;9173911;19;20417;-68
2022/11/30 13:39:11;;;;;;;41.53;21.02;;;7.90;90.00;;;;;;9173552;19;20352;-69
2022/11/30 13:42:33;;;;;;;55.17;23.15;;;7.90;90.00;;;;;;9172806;19;20010;-71
2022/11/30 13:45:37;;;;;;;50.42;24.13;;;7.90;90.00;;;;;;9180085;19;20368;-67
2022/11/30 13:48:43;;;;;;;42.13;21.33;;;7.90;89.90;;;;;;9176413;19;20018;-67
2022/11/30 13:51:47;;;;;;;53.30;22.35;;;7.90;90.00;;;;;;9173777;19;20074;-68
2022/11/30 13:55:40;;;;;;;48.72;21.67;;;7.90;90.00;;;;;;9175881;19;20032;-69
2022/11/30 13:59:34;;;;;;;42.30;21.35;;;7.90;90.00;;;;;;9175736;19;20018;-68
2022/11/30 14:03:14;;;;;;;47.70;21.85;;;7.90;90.00;;;;;;9174319;19;20017;-68
2022/11/30 14:06:47;;;;;;;44.78;22.08;;;7.90;90.00;;;;;;9179864;19;20490;-68
2022/11/30 14:09:59;;;;;;;42.78;20.95;;;7.90;90.00;;;;;;9175584;19;20027;-67
2022/11/30 14:13:04;;;;;;;43.28;21.80;;;7.90;90.00;;;;;;9178291;19;20023;-66
2022/11/30 14:16:23;;;;;;;41.72;20.52;;;7.80;89.90;;;;;;9179677;19;20025;-68
2022/11/30 14:19:29;;;;;;;44.33;21.52;;;7.80;90.00;;;;;;9171703;19;20519;-66
2022/11/30 14:22:34;;;;;;;46.00;21.60;;;7.80;90.00;;;;;;9174015;19;20010;-67
2022/11/30 14:25:40;;;;;;;44.28;21.83;;;7.80;90.00;;;;;;9177865;19;20006;-67
2022/11/30 14:29:01;;;;;;;45.65;21.08;;;7.80;90.00;;;;;;9178758;19;20522;-67
2022/11/30 14:32:12;;;;;;;47.40;20.13;;;7.80;90.00;;;;;;9178758;19;20026;-67
2022/11/30 14:35:20;;;;;;;40.45;20.60;;;7.80;90.00;;;;;;9177153;19;20035;-69
2022/11/30 14:38:28;;;;;;;48.17;20.85;;;7.80;90.00;;;;;;9179098;19;20007;-68
2022/11/30 14:41:32;;;;;;;51.88;21.83;;;7.80;90.00;;;;;;9176461;19;20018;-69
2022/11/30 14:44:40;;;;;;;48.35;21.85;;;7.80;90.00;;;;;;9178716;19;20376;-67
2022/11/30 14:47:45;;;;;;;46.55;21.38;;;7.70;90.00;;;;;;9178352;19;20431;-68
2022/11/30 14:50:53;;;;;;;49.15;22.73;;;7.70;90.00;;;;;;9178632;19;20019;-68
2022/11/30 14:54:05;;;;;;;52.20;23.25;;;7.70;90.00;;;;;;9179091;19;20006;-67
2022/11/30 14:57:20;;;;;;;58.08;23.02;;;7.80;90.00;;;;;;9178474;19;20028;-69
2022/11/30 15:00:24;;;;;;;52.72;22.05;;;7.70;90.00;;;;;;9175818;19;20023;-69
2022/11/30 15:03:32;;;;;;;58.33;22.58;;;7.80;90.00;;;;;;9176455;19;20042;-66
2022/11/30 15:06:44;;;;;;;56.63;23.05;;;7.70;90.00;;;;;;9176411;19;20021;-66
2022/11/30 15:09:57;;;;;;;56.38;24.05;;;7.70;90.30;;;;;;9173359;19;20018;-69
2022/11/30 15:13:03;;;;;;;61.08;24.08;;;7.80;90.00;;;;;;9177842;19;20475;-67
2022/11/30 15:16:15;;;;;;;57.40;24.92;;;7.80;90.00;;;;;;9175453;19;20456;-66
2022/11/30 15:19:24;;;;;;;59.38;25.63;;;7.80;90.00;;;;;;9172890;19;20661;-67
2022/11/30 15:22:34;;;;;;;52.35;23.75;;;7.80;90.00;;;;;;9173407;19;20460;-68
2022/11/30 15:25:41;;;;;;;61.65;25.30;;;7.80;90.00;;;;;;9177497;19;20922;-66
2022/11/30 15:28:52;;;;;;;51.83;24.25;;;7.80;90.00;;;;;;9176502;19;20492;-68
2022/11/30 15:31:58;;;;;;;58.42;23.48;;;7.80;90.00;;;;;;9176632;19;20018;-67
2022/11/30 15:35:04;;;;;;;64.82;24.95;;;7.70;90.00;;;;;;9176517;19;20010;-67
2022/11/30 15:38:09;;;;;;;66.25;24.35;;;7.70;90.00;;;;;;9177711;19;20022;-67
2022/11/30 15:41:21;;;;;;;62.42;25.13;;;7.70;90.00;;;;;;9179915;19;20018;-68
2022/11/30 15:44:27;;;;;;;66.68;26.02;;;7.70;90.00;;;;;;9183737;19;20018;-68
2022/11/30 15:47:37;;;;;;;56.85;24.05;;;7.70;90.00;;;;;;9166412;19;20476;-68
2022/11/30 15:50:43;;;;;;;59.10;25.58;;;7.70;90.00;;;;;;9170670;19;20015;-68
2022/11/30 15:53:52;;;;;;;59.10;25.10;;;7.70;90.00;;;;;;9159928;19;20019;-70
2022/11/30 15:56:58;;;;;;;55.25;23.05;;;7.70;90.00;;;;;;9164186;19;20054;-68
2022/11/30 16:00:08;;;;;;;59.28;22.27;;;7.70;90.00;;;;;;9165259;19;20953;-70
2022/11/30 16:03:14;;;;;;;56.42;23.45;;;7.70;90.00;;;;;;9172838;19;20025;-68
2022/11/30 16:06:20;;;;;;;52.45;20.88;;;7.70;90.00;;;;;;9173555;19;20018;-68
2022/11/30 16:09:31;;;;;;;53.55;21.63;;;7.70;90.00;;;;;;9170555;19;20041;-67
2022/11/30 16:12:35;;;;;;;58.17;23.30;;;7.60;90.00;;;;;;9171602;19;20030;-66